Terminal Aerodrome Forecast
Issued by NWS

Home | Current Version | Previous Version | Text Only | Print | Product List | Glossary On
Versions: 1 2 3 4 5 6 7 8 9 10 11 12 13 14 15 16 17 18
000
FTUS41 KBOX 220105 AAC
TAFHYA
TAF AMD
KHYA 220105Z 2201/2224 23007KT 1/2SM FG OVC002
     FM221100 VRB03KT 3/4SM BR OVC001
     FM221400 04006KT 3SM BR BKN008
     FM221700 05006KT P6SM BKN008
     FM222200 06010G21KT P6SM OVC015=

USA.gov is the U.S. government's official web portal to all federal, state and local government web resources and services.